sensor_id;sensor_type;location;lat;lon;timestamp;temperature;humidity
65972;SHT31;52726;48.852;9.152;2023-02-22T00:01:19;3.03;88.23
65972;SHT31;52726;48.852;9.152;2023-02-22T00:04:00;2.98;88.33
65972;SHT31;52726;48.852;9.152;2023-02-22T00:06:26;3.01;88.62
65972;SHT31;52726;48.852;9.152;2023-02-22T00:08:52;3.01;88.56
65972;SHT31;52726;48.852;9.152;2023-02-22T00:11:18;3.05;87.67
65972;SHT31;52726;48.852;9.152;2023-02-22T00:13:45;3.07;87.35
65972;SHT31;52726;48.852;9.152;2023-02-22T00:16:19;3.01;87.78
65972;SHT31;52726;48.852;9.152;2023-02-22T00:18:44;3.00;88.24
65972;SHT31;52726;48.852;9.152;2023-02-22T00:21:12;2.98;89.12
65972;SHT31;52726;48.852;9.152;2023-02-22T00:23:40;2.98;89.50
65972;SHT31;52726;48.852;9.152;2023-02-22T00:26:10;2.96;89.12
65972;SHT31;52726;48.852;9.152;2023-02-22T00:28:38;2.93;89.28
65972;SHT31;52726;48.852;9.152;2023-02-22T00:31:06;2.91;89.42
65972;SHT31;52726;48.852;9.152;2023-02-22T00:33:34;2.90;90.00
65972;SHT31;52726;48.852;9.152;2023-02-22T00:36:01;2.89;89.61
65972;SHT31;52726;48.852;9.152;2023-02-22T00:38:26;2.89;88.50
65972;SHT31;52726;48.852;9.152;2023-02-22T00:40:51;2.89;88.49
65972;SHT31;52726;48.852;9.152;2023-02-22T00:43:17;2.90;88.75
65972;SHT31;52726;48.852;9.152;2023-02-22T00:45:42;2.86;88.94
65972;SHT31;52726;48.852;9.152;2023-02-22T00:48:08;2.84;88.60
65972;SHT31;52726;48.852;9.152;2023-02-22T00:50:35;2.90;87.98
65972;SHT31;52726;48.852;9.152;2023-02-22T00:53:04;2.89;88.57
65972;SHT31;52726;48.852;9.152;2023-02-22T00:55:32;2.97;89.58
65972;SHT31;52726;48.852;9.152;2023-02-22T00:57:58;3.09;89.59
65972;SHT31;52726;48.852;9.152;2023-02-22T01:00:26;3.07;88.98
65972;SHT31;52726;48.852;9.152;2023-02-22T01:02:52;3.01;88.80
65972;SHT31;52726;48.852;9.152;2023-02-22T01:05:21;2.86;87.82
65972;SHT31;52726;48.852;9.152;2023-02-22T01:07:47;2.83;87.24
65972;SHT31;52726;48.852;9.152;2023-02-22T01:10:14;2.80;87.09
65972;SHT31;52726;48.852;9.152;2023-02-22T01:12:40;2.84;88.02
65972;SHT31;52726;48.852;9.152;2023-02-22T01:15:07;2.87;88.75
65972;SHT31;52726;48.852;9.152;2023-02-22T01:17:35;2.96;89.74
65972;SHT31;52726;48.852;9.152;2023-02-22T01:20:02;3.04;89.65
65972;SHT31;52726;48.852;9.152;2023-02-22T01:22:31;3.08;89.68
65972;SHT31;52726;48.852;9.152;2023-02-22T01:24:56;3.08;89.52
65972;SHT31;52726;48.852;9.152;2023-02-22T01:27:22;3.14;89.91
65972;SHT31;52726;48.852;9.152;2023-02-22T01:29:48;3.15;89.99
65972;SHT31;52726;48.852;9.152;2023-02-22T01:32:14;3.17;89.91
65972;SHT31;52726;48.852;9.152;2023-02-22T01:34:39;3.19;90.05
65972;SHT31;52726;48.852;9.152;2023-02-22T01:37:05;3.17;89.57
65972;SHT31;52726;48.852;9.152;2023-02-22T01:39:31;3.24;89.99
65972;SHT31;52726;48.852;9.152;2023-02-22T01:41:57;3.25;89.92
65972;SHT31;52726;48.852;9.152;2023-02-22T01:44:34;3.27;89.76
65972;SHT31;52726;48.852;9.152;2023-02-22T01:47:01;3.21;89.54
65972;SHT31;52726;48.852;9.152;2023-02-22T01:49:36;3.35;90.24
65972;SHT31;52726;48.852;9.152;2023-02-22T01:52:06;3.38;89.75
65972;SHT31;52726;48.852;9.152;2023-02-22T01:54:37;3.42;89.59
65972;SHT31;52726;48.852;9.152;2023-02-22T01:57:07;3.45;89.56
65972;SHT31;52726;48.852;9.152;2023-02-22T01:59:38;3.46;89.99
65972;SHT31;52726;48.852;9.152;2023-02-22T02:02:04;3.45;89.45
65972;SHT31;52726;48.852;9.152;2023-02-22T02:04:31;3.43;89.66
65972;SHT31;52726;48.852;9.152;2023-02-22T02:07:03;3.48;89.66
65972;SHT31;52726;48.852;9.152;2023-02-22T02:09:43;3.62;90.10
65972;SHT31;52726;48.852;9.152;2023-02-22T02:12:13;3.56;89.41
65972;SHT31;52726;48.852;9.152;2023-02-22T02:14:41;3.60;89.58
65972;SHT31;52726;48.852;9.152;2023-02-22T02:17:12;3.69;88.96
65972;SHT31;52726;48.852;9.152;2023-02-22T02:20:06;3.79;88.92
65972;SHT31;52726;48.852;9.152;2023-02-22T02:22:46;3.86;87.72
65972;SHT31;52726;48.852;9.152;2023-02-22T02:31:49;3.80;87.94
65972;SHT31;52726;48.852;9.152;2023-02-22T02:39:50;3.76;88.26
65972;SHT31;52726;48.852;9.152;2023-02-22T02:42:22;3.77;88.24
65972;SHT31;52726;48.852;9.152;2023-02-22T02:45:00;3.75;88.18
65972;SHT31;52726;48.852;9.152;2023-02-22T02:47:29;3.75;88.19
65972;SHT31;52726;48.852;9.152;2023-02-22T02:52:24;3.69;87.55
65972;SHT31;52726;48.852;9.152;2023-02-22T02:54:52;3.69;88.09
65972;SHT31;52726;48.852;9.152;2023-02-22T02:57:17;3.67;88.34
65972;SHT31;52726;48.852;9.152;2023-02-22T02:59:42;3.67;88.44
65972;SHT31;52726;48.852;9.152;2023-02-22T03:02:26;3.69;88.48
65972;SHT31;52726;48.852;9.152;2023-02-22T03:11:06;3.77;88.14
65972;SHT31;52726;48.852;9.152;2023-02-22T03:19:37;3.82;87.63
65972;SHT31;52726;48.852;9.152;2023-02-22T03:22:11;3.76;87.62
65972;SHT31;52726;48.852;9.152;2023-02-22T03:24:44;3.72;88.08
65972;SHT31;52726;48.852;9.152;2023-02-22T03:29:50;3.69;88.29
65972;SHT31;52726;48.852;9.152;2023-02-22T03:32:24;3.70;88.27
65972;SHT31;52726;48.852;9.152;2023-02-22T03:34:57;3.63;87.72
65972;SHT31;52726;48.852;9.152;2023-02-22T03:37:27;3.66;88.12
65972;SHT31;52726;48.852;9.152;2023-02-22T03:39:55;3.59;88.09
65972;SHT31;52726;48.852;9.152;2023-02-22T03:42:28;3.58;88.35
65972;SHT31;52726;48.852;9.152;2023-02-22T03:44:57;3.56;88.09
65972;SHT31;52726;48.852;9.152;2023-02-22T03:47:37;3.56;88.07
65972;SHT31;52726;48.852;9.152;2023-02-22T03:50:16;3.55;88.30
65972;SHT31;52726;48.852;9.152;2023-02-22T03:52:43;3.52;88.32
65972;SHT31;52726;48.852;9.152;2023-02-22T03:55:10;3.49;88.36
65972;SHT31;52726;48.852;9.152;2023-02-22T03:57:38;3.48;88.48
65972;SHT31;52726;48.852;9.152;2023-02-22T04:00:12;3.56;88.71
65972;SHT31;52726;48.852;9.152;2023-02-22T04:02:39;3.55;88.52
65972;SHT31;52726;48.852;9.152;2023-02-22T04:05:06;3.54;87.47
65972;SHT31;52726;48.852;9.152;2023-02-22T04:07:31;3.48;88.18
65972;SHT31;52726;48.852;9.152;2023-02-22T04:09:57;3.46;87.90
65972;SHT31;52726;48.852;9.152;2023-02-22T04:12:22;3.48;87.94
65972;SHT31;52726;48.852;9.152;2023-02-22T04:14:47;3.48;87.96
65972;SHT31;52726;48.852;9.152;2023-02-22T04:17:12;3.49;88.15
65972;SHT31;52726;48.852;9.152;2023-02-22T04:19:38;3.49;87.93
65972;SHT31;52726;48.852;9.152;2023-02-22T04:22:03;3.51;88.11
65972;SHT31;52726;48.852;9.152;2023-02-22T04:24:28;3.49;88.05
65972;SHT31;52726;48.852;9.152;2023-02-22T04:26:54;3.48;87.92
65972;SHT31;52726;48.852;9.152;2023-02-22T04:29:19;3.39;87.57
65972;SHT31;52726;48.852;9.152;2023-02-22T04:31:45;3.40;88.04
65972;SHT31;52726;48.852;9.152;2023-02-22T04:34:10;3.38;88.20
65972;SHT31;52726;48.852;9.152;2023-02-22T04:36:35;3.35;87.99
65972;SHT31;52726;48.852;9.152;2023-02-22T04:39:01;3.32;87.83
65972;SHT31;52726;48.852;9.152;2023-02-22T04:41:26;3.32;88.07
65972;SHT31;52726;48.852;9.152;2023-02-22T04:43:52;3.24;88.33
65972;SHT31;52726;48.852;9.152;2023-02-22T04:46:17;3.21;88.32
65972;SHT31;52726;48.852;9.152;2023-02-22T04:48:44;3.21;88.48
65972;SHT31;52726;48.852;9.152;2023-02-22T04:51:09;3.19;88.92
65972;SHT31;52726;48.852;9.152;2023-02-22T04:53:35;3.24;88.74
65972;SHT31;52726;48.852;9.152;2023-02-22T04:56:01;3.24;88.64
65972;SHT31;52726;48.852;9.152;2023-02-22T04:58:26;3.24;88.71
65972;SHT31;52726;48.852;9.152;2023-02-22T05:00:52;3.17;88.73
65972;SHT31;52726;48.852;9.152;2023-02-22T05:03:17;3.15;89.01
65972;SHT31;52726;48.852;9.152;2023-02-22T05:05:43;3.14;88.87
65972;SHT31;52726;48.852;9.152;2023-02-22T05:08:08;3.11;88.80
65972;SHT31;52726;48.852;9.152;2023-02-22T05:10:34;3.07;88.80
65972;SHT31;52726;48.852;9.152;2023-02-22T05:12:59;3.09;89.03
65972;SHT31;52726;48.852;9.152;2023-02-22T05:15:24;3.11;89.03
65972;SHT31;52726;48.852;9.152;2023-02-22T05:17:50;3.07;88.72
65972;SHT31;52726;48.852;9.152;2023-02-22T05:20:33;3.01;89.18
65972;SHT31;52726;48.852;9.152;2023-02-22T05:23:00;2.98;89.42
65972;SHT31;52726;48.852;9.152;2023-02-22T05:25:26;3.03;89.63
65972;SHT31;52726;48.852;9.152;2023-02-22T05:27:54;2.96;89.42
65972;SHT31;52726;48.852;9.152;2023-02-22T05:30:23;2.96;89.32
65972;SHT31;52726;48.852;9.152;2023-02-22T05:32:50;2.93;89.50
65972;SHT31;52726;48.852;9.152;2023-02-22T05:35:16;2.90;89.58
65972;SHT31;52726;48.852;9.152;2023-02-22T05:37:41;2.87;89.79
65972;SHT31;52726;48.852;9.152;2023-02-22T05:40:07;2.89;89.87
65972;SHT31;52726;48.852;9.152;2023-02-22T05:42:33;2.87;89.58
65972;SHT31;52726;48.852;9.152;2023-02-22T05:44:58;2.89;89.99
65972;SHT31;52726;48.852;9.152;2023-02-22T05:47:24;2.93;90.10
65972;SHT31;52726;48.852;9.152;2023-02-22T05:49:50;2.98;89.48
65972;SHT31;52726;48.852;9.152;2023-02-22T05:52:15;2.97;89.50
65972;SHT31;52726;48.852;9.152;2023-02-22T05:54:40;2.96;89.45
65972;SHT31;52726;48.852;9.152;2023-02-22T05:57:06;3.01;89.53
65972;SHT31;52726;48.852;9.152;2023-02-22T05:59:31;3.00;89.35
65972;SHT31;52726;48.852;9.152;2023-02-22T06:01:57;3.05;89.55
65972;SHT31;52726;48.852;9.152;2023-02-22T06:04:22;3.11;89.42
65972;SHT31;52726;48.852;9.152;2023-02-22T06:06:48;3.08;89.07
65972;SHT31;52726;48.852;9.152;2023-02-22T06:09:13;3.09;89.25
65972;SHT31;52726;48.852;9.152;2023-02-22T06:11:38;3.09;89.22
65972;SHT31;52726;48.852;9.152;2023-02-22T06:14:04;3.08;88.51
65972;SHT31;52726;48.852;9.152;2023-02-22T06:16:29;3.08;88.81
65972;SHT31;52726;48.852;9.152;2023-02-22T06:18:56;3.12;88.82
65972;SHT31;52726;48.852;9.152;2023-02-22T06:21:22;3.15;88.69
65972;SHT31;52726;48.852;9.152;2023-02-22T06:23:47;3.18;88.14
65972;SHT31;52726;48.852;9.152;2023-02-22T06:26:17;3.12;88.48
65972;SHT31;52726;48.852;9.152;2023-02-22T06:28:44;3.08;88.71
65972;SHT31;52726;48.852;9.152;2023-02-22T06:31:10;3.07;88.83
65972;SHT31;52726;48.852;9.152;2023-02-22T06:33:35;3.15;88.92
65972;SHT31;52726;48.852;9.152;2023-02-22T06:36:01;3.09;88.87
65972;SHT31;52726;48.852;9.152;2023-02-22T06:38:26;3.11;88.99
65972;SHT31;52726;48.852;9.152;2023-02-22T06:40:52;3.15;88.82
65972;SHT31;52726;48.852;9.152;2023-02-22T06:43:19;3.21;88.71
65972;SHT31;52726;48.852;9.152;2023-02-22T06:45:45;3.22;88.72
65972;SHT31;52726;48.852;9.152;2023-02-22T06:48:10;3.27;88.90
65972;SHT31;52726;48.852;9.152;2023-02-22T06:50:36;3.36;88.27
65972;SHT31;52726;48.852;9.152;2023-02-22T06:53:02;3.51;87.99
65972;SHT31;52726;48.852;9.152;2023-02-22T06:55:30;3.65;87.70
65972;SHT31;52726;48.852;9.152;2023-02-22T06:57:56;3.72;87.39
65972;SHT31;52726;48.852;9.152;2023-02-22T07:00:22;3.80;87.38
65972;SHT31;52726;48.852;9.152;2023-02-22T07:02:52;4.03;86.84
65972;SHT31;52726;48.852;9.152;2023-02-22T07:05:19;4.31;86.10
65972;SHT31;52726;48.852;9.152;2023-02-22T07:07:45;4.59;84.86
65972;SHT31;52726;48.852;9.152;2023-02-22T07:12:41;5.26;83.80
65972;SHT31;52726;48.852;9.152;2023-02-22T07:15:07;5.56;81.99
65972;SHT31;52726;48.852;9.152;2023-02-22T07:17:32;5.76;80.83
65972;SHT31;52726;48.852;9.152;2023-02-22T07:19:57;6.18;80.55
65972;SHT31;52726;48.852;9.152;2023-02-22T07:22:23;6.59;78.77
65972;SHT31;52726;48.852;9.152;2023-02-22T07:24:48;6.85;77.99
65972;SHT31;52726;48.852;9.152;2023-02-22T07:27:14;7.00;76.84
65972;SHT31;52726;48.852;9.152;2023-02-22T07:29:42;6.99;76.55
65972;SHT31;52726;48.852;9.152;2023-02-22T07:32:07;7.01;76.48
65972;SHT31;52726;48.852;9.152;2023-02-22T07:34:32;6.83;75.81
65972;SHT31;52726;48.852;9.152;2023-02-22T07:36:58;6.83;76.62
65972;SHT31;52726;48.852;9.152;2023-02-22T07:39:23;7.06;76.52
65972;SHT31;52726;48.852;9.152;2023-02-22T07:41:48;7.35;76.17
65972;SHT31;52726;48.852;9.152;2023-02-22T07:44:14;7.46;75.21
65972;SHT31;52726;48.852;9.152;2023-02-22T07:46:39;7.38;75.06
65972;SHT31;52726;48.852;9.152;2023-02-22T07:49:05;7.23;75.49
65972;SHT31;52726;48.852;9.152;2023-02-22T07:51:30;7.04;75.65
65972;SHT31;52726;48.852;9.152;2023-02-22T07:53:56;7.16;75.96
65972;SHT31;52726;48.852;9.152;2023-02-22T07:56:21;7.19;75.45
65972;SHT31;52726;48.852;9.152;2023-02-22T07:58:46;7.16;75.67
65972;SHT31;52726;48.852;9.152;2023-02-22T08:01:12;7.06;75.84
65972;SHT31;52726;48.852;9.152;2023-02-22T08:03:38;6.86;76.47
65972;SHT31;52726;48.852;9.152;2023-02-22T08:06:05;6.82;76.89
65972;SHT31;52726;48.852;9.152;2023-02-22T08:08:31;6.92;76.88
65972;SHT31;52726;48.852;9.152;2023-02-22T08:10:56;6.99;76.34
65972;SHT31;52726;48.852;9.152;2023-02-22T08:13:22;7.13;76.69
65972;SHT31;52726;48.852;9.152;2023-02-22T08:15:51;7.40;76.04
65972;SHT31;52726;48.852;9.152;2023-02-22T08:18:17;7.17;75.93
65972;SHT31;52726;48.852;9.152;2023-02-22T08:20:44;7.24;77.00
65972;SHT31;52726;48.852;9.152;2023-02-22T08:23:11;7.35;77.13
65972;SHT31;52726;48.852;9.152;2023-02-22T08:25:37;7.38;76.89
65972;SHT31;52726;48.852;9.152;2023-02-22T08:28:05;7.75;76.57
65972;SHT31;52726;48.852;9.152;2023-02-22T08:30:32;8.17;74.74
65972;SHT31;52726;48.852;9.152;2023-02-22T08:32:59;8.48;73.52
65972;SHT31;52726;48.852;9.152;2023-02-22T08:35:27;8.62;72.83
65972;SHT31;52726;48.852;9.152;2023-02-22T08:37:56;8.86;72.67
65972;SHT31;52726;48.852;9.152;2023-02-22T08:40:25;8.71;72.05
65972;SHT31;52726;48.852;9.152;2023-02-22T08:42:52;8.45;74.53
65972;SHT31;52726;48.852;9.152;2023-02-22T08:45:17;8.78;72.97
65972;SHT31;52726;48.852;9.152;2023-02-22T08:47:43;8.76;71.98
65972;SHT31;52726;48.852;9.152;2023-02-22T08:50:31;8.89;73.09
65972;SHT31;52726;48.852;9.152;2023-02-22T08:53:02;9.58;72.36
65972;SHT31;52726;48.852;9.152;2023-02-22T08:55:34;10.15;70.34
65972;SHT31;52726;48.852;9.152;2023-02-22T08:58:00;10.53;70.38
65972;SHT31;52726;48.852;9.152;2023-02-22T09:00:28;10.17;68.84
65972;SHT31;52726;48.852;9.152;2023-02-22T09:03:00;10.32;68.78
65972;SHT31;52726;48.852;9.152;2023-02-22T09:05:26;10.60;68.83
65972;SHT31;52726;48.852;9.152;2023-02-22T09:08:01;10.88;68.34
65972;SHT31;52726;48.852;9.152;2023-02-22T09:10:31;10.75;68.24
65972;SHT31;52726;48.852;9.152;2023-02-22T09:12:57;10.51;68.96
65972;SHT31;52726;48.852;9.152;2023-02-22T09:15:24;10.42;69.59
65972;SHT31;52726;48.852;9.152;2023-02-22T09:17:51;10.36;69.98
65972;SHT31;52726;48.852;9.152;2023-02-22T09:20:19;10.03;70.33
65972;SHT31;52726;48.852;9.152;2023-02-22T09:22:45;9.70;71.32
65972;SHT31;52726;48.852;9.152;2023-02-22T09:25:11;9.71;71.17
65972;SHT31;52726;48.852;9.152;2023-02-22T09:27:36;9.85;71.81
65972;SHT31;52726;48.852;9.152;2023-02-22T09:30:03;10.30;70.44
65972;SHT31;52726;48.852;9.152;2023-02-22T09:32:28;10.10;69.15
65972;SHT31;52726;48.852;9.152;2023-02-22T09:34:54;10.10;70.07
65972;SHT31;52726;48.852;9.152;2023-02-22T09:37:20;10.19;69.71
65972;SHT31;52726;48.852;9.152;2023-02-22T09:39:45;10.29;69.56
65972;SHT31;52726;48.852;9.152;2023-02-22T09:42:23;10.29;69.69
65972;SHT31;52726;48.852;9.152;2023-02-22T09:47:25;10.51;70.39
65972;SHT31;52726;48.852;9.152;2023-02-22T09:52:35;10.49;70.14
65972;SHT31;52726;48.852;9.152;2023-02-22T09:57:42;10.94;68.14
65972;SHT31;52726;48.852;9.152;2023-02-22T10:05:35;11.07;68.45
65972;SHT31;52726;48.852;9.152;2023-02-22T10:08:07;11.37;66.47
65972;SHT31;52726;48.852;9.152;2023-02-22T10:10:36;11.09;68.00
65972;SHT31;52726;48.852;9.152;2023-02-22T10:13:20;11.11;68.65
65972;SHT31;52726;48.852;9.152;2023-02-22T10:19:00;11.84;64.84
65972;SHT31;52726;48.852;9.152;2023-02-22T10:21:50;11.71;65.22
65972;SHT31;52726;48.852;9.152;2023-02-22T10:24:55;11.57;65.89
65972;SHT31;52726;48.852;9.152;2023-02-22T10:27:27;11.73;67.29
65972;SHT31;52726;48.852;9.152;2023-02-22T10:30:02;11.83;66.66
65972;SHT31;52726;48.852;9.152;2023-02-22T10:32:44;11.83;65.84
65972;SHT31;52726;48.852;9.152;2023-02-22T10:35:32;11.87;65.62
65972;SHT31;52726;48.852;9.152;2023-02-22T10:38:09;11.84;66.65
65972;SHT31;52726;48.852;9.152;2023-02-22T10:40:36;11.85;66.41
65972;SHT31;52726;48.852;9.152;2023-02-22T10:43:04;11.90;65.81
65972;SHT31;52726;48.852;9.152;2023-02-22T10:45:32;11.97;65.84
65972;SHT31;52726;48.852;9.152;2023-02-22T10:48:08;12.01;65.28
65972;SHT31;52726;48.852;9.152;2023-02-22T10:50:37;11.97;64.97
65972;SHT31;52726;48.852;9.152;2023-02-22T10:53:05;11.90;65.84
65972;SHT31;52726;48.852;9.152;2023-02-22T10:55:31;11.88;66.92
65972;SHT31;52726;48.852;9.152;2023-02-22T10:58:06;11.90;67.43
65972;SHT31;52726;48.852;9.152;2023-02-22T11:00:37;11.85;66.46
65972;SHT31;52726;48.852;9.152;2023-02-22T11:03:14;11.88;67.64
65972;SHT31;52726;48.852;9.152;2023-02-22T11:05:41;11.97;67.76
65972;SHT31;52726;48.852;9.152;2023-02-22T11:10:39;12.15;67.61
65972;SHT31;52726;48.852;9.152;2023-02-22T11:13:31;12.24;67.91
65972;SHT31;52726;48.852;9.152;2023-02-22T11:16:00;12.31;66.95
65972;SHT31;52726;48.852;9.152;2023-02-22T11:18:31;12.36;66.56
65972;SHT31;52726;48.852;9.152;2023-02-22T11:21:03;12.38;66.12
65972;SHT31;52726;48.852;9.152;2023-02-22T11:23:29;12.56;66.96
65972;SHT31;52726;48.852;9.152;2023-02-22T11:26:01;12.66;65.96
65972;SHT31;52726;48.852;9.152;2023-02-22T11:28:29;12.67;65.42
65972;SHT31;52726;48.852;9.152;2023-02-22T11:31:29;12.67;66.73
65972;SHT31;52726;48.852;9.152;2023-02-22T11:33:59;12.67;66.16
65972;SHT31;52726;48.852;9.152;2023-02-22T11:36:33;12.63;66.64
65972;SHT31;52726;48.852;9.152;2023-02-22T11:39:04;12.57;66.68
65972;SHT31;52726;48.852;9.152;2023-02-22T11:41:32;12.64;65.93
65972;SHT31;52726;48.852;9.152;2023-02-22T11:46:39;12.80;66.01
65972;SHT31;52726;48.852;9.152;2023-02-22T11:49:08;12.89;66.13
65972;SHT31;52726;48.852;9.152;2023-02-22T11:54:39;12.91;65.15
65972;SHT31;52726;48.852;9.152;2023-02-22T12:00:14;12.73;64.48
65972;SHT31;52726;48.852;9.152;2023-02-22T12:02:52;12.67;66.15
65972;SHT31;52726;48.852;9.152;2023-02-22T12:17:06;12.96;66.81
65972;SHT31;52726;48.852;9.152;2023-02-22T12:19:41;12.96;65.91
65972;SHT31;52726;48.852;9.152;2023-02-22T12:22:30;12.77;64.22
65972;SHT31;52726;48.852;9.152;2023-02-22T12:25:17;12.76;65.73
65972;SHT31;52726;48.852;9.152;2023-02-22T12:27:57;12.81;66.35
65972;SHT31;52726;48.852;9.152;2023-02-22T12:30:28;12.87;65.14
65972;SHT31;52726;48.852;9.152;2023-02-22T12:32:59;12.98;64.94
65972;SHT31;52726;48.852;9.152;2023-02-22T12:35:27;13.01;64.28
65972;SHT31;52726;48.852;9.152;2023-02-22T12:38:11;13.19;65.54
65972;SHT31;52726;48.852;9.152;2023-02-22T12:40:51;13.22;62.98
65972;SHT31;52726;48.852;9.152;2023-02-22T12:43:25;13.25;62.95
65972;SHT31;52726;48.852;9.152;2023-02-22T12:48:32;13.54;63.48
65972;SHT31;52726;48.852;9.152;2023-02-22T12:51:20;13.59;63.08
65972;SHT31;52726;48.852;9.152;2023-02-22T12:53:57;13.62;63.15
65972;SHT31;52726;48.852;9.152;2023-02-22T12:56:36;13.61;63.19
65972;SHT31;52726;48.852;9.152;2023-02-22T12:59:24;13.67;63.41
65972;SHT31;52726;48.852;9.152;2023-02-22T13:01:55;13.89;63.35
65972;SHT31;52726;48.852;9.152;2023-02-22T13:04:22;13.75;62.02
65972;SHT31;52726;48.852;9.152;2023-02-22T13:07:16;13.91;62.64
65972;SHT31;52726;48.852;9.152;2023-02-22T13:09:57;14.10;61.83
65972;SHT31;52726;48.852;9.152;2023-02-22T13:12:49;14.20;63.10
65972;SHT31;52726;48.852;9.152;2023-02-22T13:23:57;14.09;62.85
65972;SHT31;52726;48.852;9.152;2023-02-22T13:26:48;14.09;62.72
65972;SHT31;52726;48.852;9.152;2023-02-22T13:29:34;14.03;62.16
65972;SHT31;52726;48.852;9.152;2023-02-22T13:34:45;14.04;63.55
65972;SHT31;52726;48.852;9.152;2023-02-22T13:43:12;14.10;63.52
65972;SHT31;52726;48.852;9.152;2023-02-22T13:54:06;13.61;63.64
65972;SHT31;52726;48.852;9.152;2023-02-22T13:56:33;13.75;64.99
65972;SHT31;52726;48.852;9.152;2023-02-22T13:59:01;13.76;63.33
65972;SHT31;52726;48.852;9.152;2023-02-22T14:01:41;13.67;63.77
65972;SHT31;52726;48.852;9.152;2023-02-22T14:06:51;13.41;63.65
65972;SHT31;52726;48.852;9.152;2023-02-22T14:15:13;13.18;66.02
65972;SHT31;52726;48.852;9.152;2023-02-22T14:22:39;13.12;65.36
65972;SHT31;52726;48.852;9.152;2023-02-22T14:25:05;13.11;65.69
65972;SHT31;52726;48.852;9.152;2023-02-22T14:27:40;13.14;66.87
65972;SHT31;52726;48.852;9.152;2023-02-22T14:30:20;13.12;65.65
65972;SHT31;52726;48.852;9.152;2023-02-22T14:32:50;13.15;66.70
65972;SHT31;52726;48.852;9.152;2023-02-22T14:35:17;13.19;67.44
65972;SHT31;52726;48.852;9.152;2023-02-22T14:37:48;13.21;68.26
65972;SHT31;52726;48.852;9.152;2023-02-22T14:40:25;13.31;67.66
65972;SHT31;52726;48.852;9.152;2023-02-22T14:43:12;13.37;67.41
65972;SHT31;52726;48.852;9.152;2023-02-22T14:45:44;13.39;65.44
65972;SHT31;52726;48.852;9.152;2023-02-22T14:48:19;13.44;66.20
65972;SHT31;52726;48.852;9.152;2023-02-22T14:51:25;13.45;65.17
65972;SHT31;52726;48.852;9.152;2023-02-22T14:53:56;13.38;66.45
65972;SHT31;52726;48.852;9.152;2023-02-22T14:56:51;13.39;66.47
65972;SHT31;52726;48.852;9.152;2023-02-22T14:59:22;13.38;66.70
65972;SHT31;52726;48.852;9.152;2023-02-22T15:01:56;13.35;66.75
65972;SHT31;52726;48.852;9.152;2023-02-22T15:04:29;13.38;66.67
65972;SHT31;52726;48.852;9.152;2023-02-22T15:06:56;13.38;67.28
65972;SHT31;52726;48.852;9.152;2023-02-22T15:09:25;13.28;66.36
65972;SHT31;52726;48.852;9.152;2023-02-22T15:12:11;13.19;67.21
65972;SHT31;52726;48.852;9.152;2023-02-22T15:14:38;13.21;67.66
65972;SHT31;52726;48.852;9.152;2023-02-22T15:17:18;13.14;67.30
65972;SHT31;52726;48.852;9.152;2023-02-22T15:19:45;13.14;67.99
65972;SHT31;52726;48.852;9.152;2023-02-22T15:22:21;13.12;68.17
65972;SHT31;52726;48.852;9.152;2023-02-22T15:24:57;13.07;67.74
65972;SHT31;52726;48.852;9.152;2023-02-22T15:27:23;13.01;67.79
65972;SHT31;52726;48.852;9.152;2023-02-22T15:29:56;12.98;67.32
65972;SHT31;52726;48.852;9.152;2023-02-22T15:32:36;12.97;67.17
65972;SHT31;52726;48.852;9.152;2023-02-22T15:37:58;12.91;67.54
65972;SHT31;52726;48.852;9.152;2023-02-22T15:40:25;12.91;67.58
65972;SHT31;52726;48.852;9.152;2023-02-22T15:42:59;12.91;68.06
65972;SHT31;52726;48.852;9.152;2023-02-22T15:45:25;12.90;68.24
65972;SHT31;52726;48.852;9.152;2023-02-22T15:47:53;12.86;68.16
65972;SHT31;52726;48.852;9.152;2023-02-22T15:50:29;12.83;68.64
65972;SHT31;52726;48.852;9.152;2023-02-22T15:55:34;12.76;69.10
65972;SHT31;52726;48.852;9.152;2023-02-22T15:58:20;12.67;69.40
65972;SHT31;52726;48.852;9.152;2023-02-22T16:01:01;12.66;69.02
65972;SHT31;52726;48.852;9.152;2023-02-22T16:03:34;12.60;69.52
65972;SHT31;52726;48.852;9.152;2023-02-22T16:06:07;12.56;69.97
65972;SHT31;52726;48.852;9.152;2023-02-22T16:08:44;12.52;70.31
65972;SHT31;52726;48.852;9.152;2023-02-22T16:11:41;12.45;70.27
65972;SHT31;52726;48.852;9.152;2023-02-22T16:14:30;12.41;70.67
65972;SHT31;52726;48.852;9.152;2023-02-22T16:22:43;12.05;73.28
65972;SHT31;52726;48.852;9.152;2023-02-22T16:27:55;11.90;73.88
65972;SHT31;52726;48.852;9.152;2023-02-22T16:30:33;11.83;73.98
65972;SHT31;52726;48.852;9.152;2023-02-22T16:33:03;11.77;74.20
65972;SHT31;52726;48.852;9.152;2023-02-22T16:35:29;11.66;74.43
65972;SHT31;52726;48.852;9.152;2023-02-22T16:38:06;11.59;74.38
65972;SHT31;52726;48.852;9.152;2023-02-22T16:40:34;11.53;74.45
65972;SHT31;52726;48.852;9.152;2023-02-22T16:43:12;11.44;74.30
65972;SHT31;52726;48.852;9.152;2023-02-22T16:45:38;11.43;74.27
65972;SHT31;52726;48.852;9.152;2023-02-22T16:48:21;11.35;74.11
65972;SHT31;52726;48.852;9.152;2023-02-22T16:50:48;11.25;74.36
65972;SHT31;52726;48.852;9.152;2023-02-22T16:53:15;11.07;75.02
65972;SHT31;52726;48.852;9.152;2023-02-22T16:55:44;10.95;75.32
65972;SHT31;52726;48.852;9.152;2023-02-22T16:58:12;10.94;75.26
65972;SHT31;52726;48.852;9.152;2023-02-22T17:00:39;10.92;75.27
65972;SHT31;52726;48.852;9.152;2023-02-22T17:03:15;10.91;75.17
65972;SHT31;52726;48.852;9.152;2023-02-22T17:05:41;10.87;75.17
65972;SHT31;52726;48.852;9.152;2023-02-22T17:08:06;10.84;75.41
65972;SHT31;52726;48.852;9.152;2023-02-22T17:10:32;10.88;72.25
65972;SHT31;52726;48.852;9.152;2023-02-22T17:12:58;10.88;71.27
65972;SHT31;52726;48.852;9.152;2023-02-22T17:15:27;10.85;71.01
65972;SHT31;52726;48.852;9.152;2023-02-22T17:17:53;10.77;71.08
65972;SHT31;52726;48.852;9.152;2023-02-22T17:20:19;10.70;71.16
65972;SHT31;52726;48.852;9.152;2023-02-22T17:22:58;10.60;71.50
65972;SHT31;52726;48.852;9.152;2023-02-22T17:25:27;10.54;71.60
65972;SHT31;52726;48.852;9.152;2023-02-22T17:27:53;10.36;72.45
65972;SHT31;52726;48.852;9.152;2023-02-22T17:30:19;10.23;72.80
65972;SHT31;52726;48.852;9.152;2023-02-22T17:32:46;10.10;73.31
65972;SHT31;52726;48.852;9.152;2023-02-22T17:35:15;10.02;73.69
65972;SHT31;52726;48.852;9.152;2023-02-22T17:37:41;9.96;73.86
65972;SHT31;52726;48.852;9.152;2023-02-22T17:40:07;9.92;74.13
65972;SHT31;52726;48.852;9.152;2023-02-22T17:42:32;9.85;74.11
65972;SHT31;52726;48.852;9.152;2023-02-22T17:44:57;9.78;74.40
65972;SHT31;52726;48.852;9.152;2023-02-22T17:47:23;9.68;74.52
65972;SHT31;52726;48.852;9.152;2023-02-22T17:49:48;9.59;74.81
65972;SHT31;52726;48.852;9.152;2023-02-22T17:52:13;9.54;74.85
65972;SHT31;52726;48.852;9.152;2023-02-22T17:54:40;9.46;74.96
65972;SHT31;52726;48.852;9.152;2023-02-22T17:57:05;9.33;75.22
65972;SHT31;52726;48.852;9.152;2023-02-22T17:59:31;9.30;75.40
65972;SHT31;52726;48.852;9.152;2023-02-22T18:01:56;9.26;75.37
65972;SHT31;52726;48.852;9.152;2023-02-22T18:04:21;9.16;75.76